Time;durP1;ratioP1;P1;durP2;ratioP2;P2;SDS_P1;SDS_P2;PMS_P1;PMS_P2;Temp;Humidity;BMP_temperature;BMP_pressure;BME280_temperature;BME280_humidity;BME280_pressure;Samples;Min_cycle;Max_cycle;Signal;HPM_P1;HPM_P2
2021/08/29 00:00:23;;;;;;;15.32;9.05;;;15.30;99.90;;;;;;5033276;28;20036;-61
2021/08/29 00:02:49;;;;;;;18.65;9.32;;;15.20;99.90;;;;;;5034796;28;20051;-60
2021/08/29 00:05:15;;;;;;;16.30;9.52;;;15.20;99.90;;;;;;5031932;28;20096;-58
2021/08/29 00:07:40;;;;;;;17.17;8.52;;;15.20;99.90;;;;;;5034280;28;20079;-56
2021/08/29 00:10:07;;;;;;;20.75;9.30;;;15.10;99.90;;;;;;5032963;28;20029;-59
2021/08/29 00:12:33;;;;;;;18.17;9.77;;;15.20;99.90;;;;;;5038057;28;20064;-61
2021/08/29 00:14:59;;;;;;;20.27;9.77;;;15.20;99.90;;;;;;5031908;28;20527;-61
2021/08/29 00:17:24;;;;;;;17.60;8.82;;;15.10;99.90;;;;;;5033841;28;20029;-61
2021/08/29 00:19:50;;;;;;;19.98;9.38;;;15.20;99.90;;;;;;5036053;28;20472;-60
2021/08/29 00:22:17;;;;;;;19.42;8.23;;;15.20;99.90;;;;;;5030979;28;20024;-59
2021/08/29 00:24:42;;;;;;;16.65;7.93;;;15.20;99.90;;;;;;5029874;28;20492;-61
2021/08/29 00:27:08;;;;;;;20.73;9.18;;;15.20;99.90;;;;;;5030276;28;20048;-60
2021/08/29 00:29:34;;;;;;;15.73;8.43;;;15.20;99.90;;;;;;5029653;28;20044;-61
2021/08/29 00:31:59;;;;;;;18.60;7.45;;;15.10;99.90;;;;;;5031385;28;20061;-60
2021/08/29 00:34:25;;;;;;;15.00;8.25;;;15.10;99.90;;;;;;5031184;28;20493;-61
2021/08/29 00:36:50;;;;;;;18.00;7.07;;;15.20;99.90;;;;;;5032314;28;20040;-59
2021/08/29 00:39:17;;;;;;;11.95;6.70;;;15.10;99.90;;;;;;5029086;28;20530;-60
2021/08/29 00:41:44;;;;;;;12.57;5.93;;;15.10;99.90;;;;;;5033862;28;20048;-60
2021/08/29 00:44:12;;;;;;;16.98;7.15;;;15.10;99.90;;;;;;5031713;28;20155;-61
2021/08/29 00:46:39;;;;;;;14.27;7.07;;;15.10;99.90;;;;;;5036037;28;20029;-58
2021/08/29 00:49:04;;;;;;;14.13;6.18;;;15.10;99.90;;;;;;5031646;28;20028;-57
2021/08/29 00:51:33;;;;;;;16.13;6.90;;;15.10;99.90;;;;;;5034920;28;20017;-59
2021/08/29 00:53:59;;;;;;;15.32;7.22;;;15.10;99.90;;;;;;5031706;28;20037;-57
2021/08/29 00:56:25;;;;;;;20.60;7.32;;;15.10;99.90;;;;;;5028773;28;20036;-61
2021/08/29 00:58:51;;;;;;;13.32;7.05;;;15.10;99.90;;;;;;5030073;28;20035;-59
2021/08/29 01:01:22;;;;;;;18.40;7.72;;;15.10;99.90;;;;;;5031936;28;20036;-60
2021/08/29 01:03:52;;;;;;;17.33;7.55;;;15.10;99.90;;;;;;5029721;28;20095;-58
2021/08/29 01:06:23;;;;;;;16.55;7.25;;;15.10;99.90;;;;;;5028369;28;20143;-59
2021/08/29 01:08:55;;;;;;;18.38;7.30;;;15.10;99.90;;;;;;5029692;28;20033;-60
2021/08/29 01:11:26;;;;;;;16.33;7.47;;;15.10;99.90;;;;;;5029159;28;20472;-60
2021/08/29 01:13:58;;;;;;;15.35;7.78;;;15.00;99.90;;;;;;5031577;28;20460;-60
2021/08/29 01:16:28;;;;;;;15.02;7.20;;;15.00;99.90;;;;;;5029172;28;20064;-59
2021/08/29 01:18:56;;;;;;;18.33;8.45;;;15.00;99.90;;;;;;5033104;28;20029;-59
2021/08/29 01:21:26;;;;;;;14.77;7.20;;;14.90;99.90;;;;;;5029904;28;20017;-60
2021/08/29 01:23:58;;;;;;;20.05;7.60;;;15.00;99.90;;;;;;5032110;28;20408;-61
2021/08/29 01:26:29;;;;;;;15.25;7.60;;;14.90;99.90;;;;;;5027840;28;20025;-60
2021/08/29 01:29:00;;;;;;;15.82;8.10;;;14.90;99.90;;;;;;5029046;28;20057;-58
2021/08/29 01:31:28;;;;;;;15.10;7.95;;;15.00;99.90;;;;;;5031105;28;20029;-58
2021/08/29 01:33:56;;;;;;;18.35;8.95;;;14.90;99.90;;;;;;5031554;28;20084;-60
2021/08/29 01:36:24;;;;;;;18.85;8.07;;;14.90;99.90;;;;;;5032229;28;20021;-60
2021/08/29 01:38:50;;;;;;;17.30;7.47;;;14.90;99.90;;;;;;5031302;28;20562;-60
2021/08/29 01:41:17;;;;;;;15.95;8.18;;;14.90;99.90;;;;;;5032905;28;20024;-60
2021/08/29 01:43:44;;;;;;;16.25;8.30;;;14.90;99.90;;;;;;5033350;28;20030;-60
2021/08/29 01:46:10;;;;;;;18.05;8.65;;;15.00;99.90;;;;;;5032592;28;20021;-59
2021/08/29 01:48:39;;;;;;;20.08;9.45;;;14.90;99.90;;;;;;5035942;28;20048;-58
2021/08/29 01:51:05;;;;;;;21.80;9.65;;;14.90;99.90;;;;;;5029814;28;20025;-58
2021/08/29 01:53:31;;;;;;;18.45;9.30;;;14.90;99.90;;;;;;5033854;28;20499;-58
2021/08/29 01:55:56;;;;;;;15.52;9.35;;;14.90;99.90;;;;;;5029144;28;20033;-59
2021/08/29 01:58:22;;;;;;;18.73;9.70;;;14.90;99.90;;;;;;5038462;28;20034;-59
2021/08/29 02:00:52;;;;;;;20.20;9.52;;;14.90;99.90;;;;;;5029478;28;20036;-60
2021/08/29 02:03:19;;;;;;;24.27;9.82;;;14.90;99.90;;;;;;5030116;28;20525;-59
2021/08/29 02:05:46;;;;;;;24.35;10.20;;;14.90;99.90;;;;;;5029939;28;20104;-57
2021/08/29 02:08:15;;;;;;;21.08;10.45;;;14.90;99.90;;;;;;5034448;28;20688;-59
2021/08/29 02:10:41;;;;;;;18.88;9.63;;;14.90;99.90;;;;;;5031939;28;20028;-59
2021/08/29 02:13:10;;;;;;;22.17;11.10;;;14.90;99.90;;;;;;5031440;28;20056;-59
2021/08/29 02:15:43;;;;;;;18.75;10.35;;;14.90;99.90;;;;;;5029534;28;20036;-59
2021/08/29 02:18:11;;;;;;;20.02;10.95;;;14.90;99.90;;;;;;5033875;28;20037;-61
2021/08/29 02:20:37;;;;;;;33.33;11.27;;;14.80;99.90;;;;;;5030630;28;20457;-59
2021/08/29 02:23:04;;;;;;;19.27;9.50;;;14.80;99.90;;;;;;5030166;28;20451;-61
2021/08/29 02:25:30;;;;;;;23.90;10.77;;;14.90;99.90;;;;;;5030639;28;20025;-59
2021/08/29 02:27:56;;;;;;;23.88;11.23;;;14.80;99.90;;;;;;5031119;28;20431;-61
2021/08/29 02:30:22;;;;;;;19.95;10.23;;;14.80;99.90;;;;;;5032576;28;20029;-59
2021/08/29 02:32:51;;;;;;;28.67;10.77;;;14.80;99.90;;;;;;5031360;28;20037;-60
2021/08/29 02:35:17;;;;;;;17.55;9.73;;;14.80;99.90;;;;;;5032269;28;20025;-61
2021/08/29 02:37:44;;;;;;;20.05;9.82;;;14.80;99.90;;;;;;5029172;28;20030;-61
2021/08/29 02:40:11;;;;;;;16.42;9.20;;;14.80;99.90;;;;;;5028551;28;20091;-59
2021/08/29 02:42:39;;;;;;;18.05;9.85;;;14.80;99.90;;;;;;5026916;28;20052;-59
2021/08/29 02:45:12;;;;;;;21.05;10.32;;;14.80;99.90;;;;;;5029270;28;20032;-60
2021/08/29 02:47:38;;;;;;;22.33;11.45;;;14.70;99.90;;;;;;5031784;28;20452;-61
2021/08/29 02:50:04;;;;;;;22.08;10.55;;;14.70;99.90;;;;;;5038712;28;20347;-60
2021/08/29 02:52:30;;;;;;;15.65;9.75;;;14.80;99.90;;;;;;5033415;28;20038;-60
2021/08/29 02:54:57;;;;;;;27.30;10.77;;;14.80;99.90;;;;;;5034163;28;20029;-60
2021/08/29 02:57:30;;;;;;;23.85;10.75;;;14.70;99.90;;;;;;5038909;28;20099;-61
2021/08/29 02:59:56;;;;;;;20.48;10.27;;;14.70;99.90;;;;;;5034041;28;20025;-62
2021/08/29 03:02:22;;;;;;;18.45;10.98;;;14.70;99.90;;;;;;5033940;28;20040;-61
2021/08/29 03:04:48;;;;;;;25.15;9.75;;;14.70;99.90;;;;;;5034083;28;20060;-61
2021/08/29 03:07:13;;;;;;;17.83;10.73;;;14.70;99.90;;;;;;5037598;28;20053;-60
2021/08/29 03:09:39;;;;;;;20.70;10.52;;;14.70;99.90;;;;;;5038410;28;20029;-59
2021/08/29 03:12:07;;;;;;;24.15;10.90;;;14.70;99.90;;;;;;5030945;28;20087;-60
2021/08/29 03:14:33;;;;;;;20.98;9.70;;;14.70;99.90;;;;;;5031746;28;20075;-60
2021/08/29 03:17:00;;;;;;;18.60;9.25;;;14.80;99.90;;;;;;5032028;28;20072;-61
2021/08/29 03:19:26;;;;;;;16.50;9.55;;;14.70;99.90;;;;;;5031976;28;20032;-59
2021/08/29 03:21:52;;;;;;;17.63;9.45;;;14.70;99.90;;;;;;5030495;28;20025;-61
2021/08/29 03:24:18;;;;;;;17.88;9.57;;;14.70;99.90;;;;;;5034579;28;20077;-60
2021/08/29 03:26:43;;;;;;;18.80;9.48;;;14.70;99.90;;;;;;5033755;28;20111;-60
2021/08/29 03:29:10;;;;;;;20.15;8.65;;;14.60;99.90;;;;;;5029681;28;20092;-61
2021/08/29 03:31:35;;;;;;;19.90;9.73;;;14.70;99.90;;;;;;5031280;28;20021;-61
2021/08/29 03:34:02;;;;;;;20.20;9.77;;;14.70;99.90;;;;;;5034352;28;20021;-61
2021/08/29 03:36:31;;;;;;;22.55;10.23;;;14.60;99.90;;;;;;5030055;28;20033;-58
2021/08/29 03:38:59;;;;;;;21.08;9.65;;;14.60;99.90;;;;;;5034290;28;20403;-58
2021/08/29 03:41:27;;;;;;;18.27;9.18;;;14.60;99.90;;;;;;5030735;28;20087;-60
2021/08/29 03:43:53;;;;;;;19.98;9.85;;;14.70;99.90;;;;;;5034747;28;20039;-61
2021/08/29 03:46:19;;;;;;;14.95;8.63;;;14.70;99.90;;;;;;5031538;28;20021;-61
2021/08/29 03:48:45;;;;;;;18.23;8.88;;;14.70;99.90;;;;;;5034064;28;20148;-60
2021/08/29 03:51:14;;;;;;;24.25;9.57;;;14.70;99.90;;;;;;5034651;28;20423;-60
2021/08/29 03:53:40;;;;;;;23.98;10.00;;;14.70;99.90;;;;;;5035808;28;20584;-59
2021/08/29 03:56:06;;;;;;;18.65;9.77;;;14.70;99.90;;;;;;5029304;28;20109;-61
2021/08/29 03:58:35;;;;;;;24.52;9.50;;;14.70;99.90;;;;;;5029181;28;20037;-60
2021/08/29 04:01:02;;;;;;;28.02;10.98;;;14.70;99.90;;;;;;5029854;28;20025;-61
2021/08/29 04:03:28;;;;;;;27.02;9.32;;;14.70;99.90;;;;;;5032437;28;20021;-60
2021/08/29 04:05:54;;;;;;;16.83;9.73;;;14.70;99.90;;;;;;5026881;28;20136;-61
2021/08/29 04:08:28;;;;;;;22.55;11.18;;;14.70;99.90;;;;;;5034554;28;20028;-62
2021/08/29 04:10:59;;;;;;;17.95;9.82;;;14.70;99.90;;;;;;5034924;28;20041;-59
2021/08/29 04:13:27;;;;;;;23.13;9.50;;;14.70;99.90;;;;;;5032669;28;20390;-61
2021/08/29 04:15:53;;;;;;;20.77;9.55;;;14.70;99.90;;;;;;5030248;28;20414;-61
2021/08/29 04:18:21;;;;;;;21.15;9.00;;;14.70;99.90;;;;;;5033193;28;20028;-60
2021/08/29 04:20:47;;;;;;;19.48;9.45;;;14.70;99.90;;;;;;5027213;28;20048;-59
2021/08/29 04:23:13;;;;;;;23.50;9.05;;;14.70;99.90;;;;;;5033572;28;20024;-61
2021/08/29 04:25:39;;;;;;;21.60;9.85;;;14.70;99.90;;;;;;5034653;28;20079;-59
2021/08/29 04:28:05;;;;;;;25.20;11.10;;;14.70;99.90;;;;;;5033994;28;20021;-60
2021/08/29 04:30:31;;;;;;;32.53;10.45;;;14.70;99.90;;;;;;5031133;28;20025;-60
2021/08/29 04:32:56;;;;;;;21.05;9.55;;;14.70;99.90;;;;;;5030748;28;20041;-61
2021/08/29 04:35:22;;;;;;;17.80;9.63;;;14.70;99.90;;;;;;5035058;28;20428;-60
2021/08/29 04:37:48;;;;;;;26.67;11.25;;;14.70;99.90;;;;;;5034994;28;20033;-61
2021/08/29 04:40:14;;;;;;;22.75;10.18;;;14.70;99.90;;;;;;5031341;28;20087;-60
2021/08/29 04:42:39;;;;;;;30.70;11.02;;;14.70;99.90;;;;;;5030152;28;20137;-61
2021/08/29 04:45:05;;;;;;;18.52;10.07;;;14.70;99.90;;;;;;5029418;28;20033;-59
2021/08/29 04:47:31;;;;;;;21.75;10.52;;;14.70;99.90;;;;;;5029381;28;20136;-60
2021/08/29 04:49:56;;;;;;;23.92;10.48;;;14.70;99.90;;;;;;5029149;28;20488;-59
2021/08/29 04:52:22;;;;;;;27.08;11.10;;;14.60;99.90;;;;;;5028254;28;20025;-61
2021/08/29 04:54:47;;;;;;;32.35;12.82;;;14.60;99.90;;;;;;5032015;28;20067;-62
2021/08/29 04:57:13;;;;;;;29.95;12.30;;;14.60;99.90;;;;;;5030219;28;20033;-59
2021/08/29 04:59:38;;;;;;;22.35;11.57;;;14.60;99.90;;;;;;5030374;28;20409;-60
2021/08/29 05:02:04;;;;;;;29.33;12.10;;;14.60;99.90;;;;;;5029045;28;20393;-59
2021/08/29 05:04:29;;;;;;;27.33;12.85;;;14.60;99.90;;;;;;5031233;28;20044;-61
2021/08/29 05:06:55;;;;;;;33.55;13.02;;;14.60;99.90;;;;;;5029136;28;20029;-60
2021/08/29 05:09:20;;;;;;;32.70;13.35;;;14.60;99.90;;;;;;5029985;28;20048;-61
2021/08/29 05:11:46;;;;;;;18.88;10.70;;;14.60;99.90;;;;;;5028979;28;20123;-61
2021/08/29 05:14:11;;;;;;;24.00;10.98;;;14.60;99.90;;;;;;5033154;28;20057;-60
2021/08/29 05:16:37;;;;;;;24.88;11.30;;;14.60;99.90;;;;;;5029092;28;20026;-61
2021/08/29 05:19:02;;;;;;;31.90;11.73;;;14.60;99.90;;;;;;5027680;28;20044;-60
2021/08/29 05:21:28;;;;;;;22.23;11.68;;;14.70;99.90;;;;;;5029375;28;20499;-59
2021/08/29 05:23:53;;;;;;;33.50;11.30;;;14.60;99.90;;;;;;5029109;28;20028;-59
2021/08/29 05:26:19;;;;;;;28.85;10.75;;;14.70;99.90;;;;;;5029938;28;20040;-60
2021/08/29 05:28:44;;;;;;;31.27;11.00;;;14.70;99.90;;;;;;5032754;28;20044;-59
2021/08/29 05:31:10;;;;;;;24.85;11.43;;;14.70;99.90;;;;;;5031177;28;20030;-60
2021/08/29 05:33:36;;;;;;;26.40;11.25;;;14.70;99.90;;;;;;5026807;28;20033;-61
2021/08/29 05:36:01;;;;;;;25.48;10.73;;;14.70;99.90;;;;;;5035362;28;20033;-60
2021/08/29 05:38:27;;;;;;;18.27;9.93;;;14.70;99.90;;;;;;5028944;28;20059;-59
2021/08/29 05:40:52;;;;;;;25.13;10.60;;;14.70;99.90;;;;;;5031199;28;20477;-58
2021/08/29 05:43:18;;;;;;;26.63;11.02;;;14.70;99.90;;;;;;5028587;28;20355;-61
2021/08/29 05:45:43;;;;;;;29.48;10.57;;;14.70;99.90;;;;;;5029410;28;20041;-59
2021/08/29 05:48:09;;;;;;;17.17;9.60;;;14.70;99.90;;;;;;5029262;28;20444;-61
2021/08/29 05:50:34;;;;;;;26.83;11.32;;;14.80;99.90;;;;;;5030659;28;20021;-57
2021/08/29 05:53:00;;;;;;;29.40;10.63;;;14.80;99.90;;;;;;5030050;28;20041;-59
2021/08/29 05:55:25;;;;;;;35.13;11.07;;;14.80;99.90;;;;;;5030522;28;20029;-59
2021/08/29 05:57:51;;;;;;;21.50;9.73;;;14.80;99.90;;;;;;5031847;28;20048;-60
2021/08/29 06:00:17;;;;;;;18.15;8.63;;;14.90;99.90;;;;;;5027834;28;20507;-61
2021/08/29 06:02:43;;;;;;;22.90;9.05;;;14.90;99.90;;;;;;5031613;28;20052;-60
2021/08/29 06:05:09;;;;;;;27.45;9.52;;;14.90;99.90;;;;;;5027366;28;20064;-60
2021/08/29 06:07:34;;;;;;;25.08;10.70;;;14.90;99.90;;;;;;5034990;28;20028;-59
2021/08/29 06:10:00;;;;;;;25.92;9.13;;;15.00;99.90;;;;;;5031357;28;20037;-58
2021/08/29 06:12:25;;;;;;;20.77;10.32;;;14.90;99.90;;;;;;5023144;28;20037;-57
2021/08/29 06:14:51;;;;;;;24.48;9.07;;;15.00;99.90;;;;;;5028529;28;20042;-61
2021/08/29 06:17:16;;;;;;;24.60;9.43;;;15.00;99.90;;;;;;5028587;28;20021;-61
2021/08/29 06:19:42;;;;;;;28.15;9.50;;;15.00;99.90;;;;;;5028269;28;20080;-60
2021/08/29 06:22:07;;;;;;;26.77;10.00;;;15.00;99.90;;;;;;5031370;28;20160;-60
2021/08/29 06:24:33;;;;;;;21.05;10.13;;;15.10;99.90;;;;;;5034930;28;20029;-61
2021/08/29 06:26:58;;;;;;;21.38;9.23;;;15.10;99.90;;;;;;5031336;28;20033;-60
2021/08/29 06:29:24;;;;;;;22.63;9.32;;;15.10;99.90;;;;;;5032353;28;20122;-62
2021/08/29 06:31:50;;;;;;;32.13;9.50;;;15.10;99.90;;;;;;5032138;28;20044;-58
2021/08/29 06:34:15;;;;;;;17.20;9.35;;;15.00;99.90;;;;;;5029391;28;20553;-61
2021/08/29 06:36:41;;;;;;;20.85;10.63;;;15.10;99.90;;;;;;5028531;28;20060;-60
2021/08/29 06:39:06;;;;;;;25.85;9.02;;;15.10;99.90;;;;;;5032387;28;20056;-62
2021/08/29 06:41:32;;;;;;;25.23;8.63;;;15.10;99.90;;;;;;5034461;28;20017;-60
2021/08/29 06:43:57;;;;;;;18.65;8.82;;;15.20;99.90;;;;;;5038030;28;20412;-61
2021/08/29 06:46:23;;;;;;;31.73;9.73;;;15.20;99.90;;;;;;5030954;28;20091;-61
2021/08/29 06:48:48;;;;;;;24.23;9.13;;;15.20;99.90;;;;;;5033063;28;20041;-60
2021/08/29 06:51:14;;;;;;;26.77;8.25;;;15.20;99.90;;;;;;5034325;28;20037;-59
2021/08/29 06:53:40;;;;;;;25.08;8.50;;;15.20;99.90;;;;;;5032056;28;20032;-60
2021/08/29 06:56:05;;;;;;;27.45;9.30;;;15.20;99.90;;;;;;5030567;28;20033;-60
2021/08/29 06:58:31;;;;;;;25.15;9.57;;;15.20;99.90;;;;;;5034841;28;20024;-60
2021/08/29 07:00:56;;;;;;;25.65;9.73;;;15.20;99.90;;;;;;5029897;28;20033;-60
2021/08/29 07:03:22;;;;;;;31.85;10.32;;;15.10;99.90;;;;;;5034851;28;20025;-57
2021/08/29 07:05:47;;;;;;;24.15;9.55;;;15.20;99.90;;;;;;5029971;28;20107;-62
2021/08/29 07:08:13;;;;;;;20.58;8.80;;;15.20;99.90;;;;;;5028792;28;20108;-61
2021/08/29 07:10:38;;;;;;;23.98;9.48;;;15.10;99.90;;;;;;5028468;28;20314;-59
2021/08/29 07:13:04;;;;;;;23.25;9.77;;;15.20;99.90;;;;;;5024950;28;20056;-60
2021/08/29 07:15:30;;;;;;;32.60;11.40;;;15.10;99.90;;;;;;5029616;28;20091;-61
2021/08/29 07:17:55;;;;;;;21.42;8.95;;;15.10;99.90;;;;;;5031312;28;20025;-61
2021/08/29 07:20:21;;;;;;;27.50;10.75;;;15.10;99.90;;;;;;5029823;28;20512;-59
2021/08/29 07:22:47;;;;;;;27.05;9.85;;;15.10;99.90;;;;;;5026755;28;20041;-61
2021/08/29 07:25:12;;;;;;;23.38;11.10;;;15.10;99.90;;;;;;5025995;28;20025;-60
2021/08/29 07:27:38;;;;;;;35.03;11.25;;;15.10;99.90;;;;;;5025823;28;20750;-60
2021/08/29 07:30:04;;;;;;;26.15;11.68;;;15.10;99.90;;;;;;5026475;28;20037;-59
2021/08/29 07:32:29;;;;;;;25.17;10.95;;;15.10;99.90;;;;;;5028012;28;20041;-58
2021/08/29 07:34:55;;;;;;;30.08;9.77;;;15.20;99.90;;;;;;5027505;28;20045;-61
2021/08/29 07:37:22;;;;;;;29.35;11.02;;;15.10;99.90;;;;;;5024612;28;20126;-60
2021/08/29 07:39:48;;;;;;;26.15;10.90;;;15.10;99.90;;;;;;5026886;28;20484;-59
2021/08/29 07:42:14;;;;;;;22.23;10.85;;;15.20;99.90;;;;;;5028629;28;20501;-60
2021/08/29 07:44:39;;;;;;;22.50;10.90;;;15.30;99.90;;;;;;5029593;28;20045;-60
2021/08/29 07:47:05;;;;;;;31.00;11.00;;;15.30;99.90;;;;;;5028076;28;20030;-61
2021/08/29 07:49:30;;;;;;;24.33;10.65;;;15.30;99.90;;;;;;5031032;28;20033;-58
2021/08/29 07:51:56;;;;;;;22.05;9.55;;;15.40;99.90;;;;;;5031459;28;20155;-60
2021/08/29 07:54:21;;;;;;;24.50;10.00;;;15.40;99.90;;;;;;5030539;28;20079;-60
2021/08/29 07:56:47;;;;;;;23.17;10.68;;;15.40;99.90;;;;;;5038068;28;20029;-58
2021/08/29 07:59:13;;;;;;;27.65;10.32;;;15.50;99.90;;;;;;5032384;28;20030;-61
2021/08/29 08:01:39;;;;;;;24.27;9.88;;;15.50;99.90;;;;;;5033266;28;20033;-58
2021/08/29 08:04:05;;;;;;;22.77;9.43;;;15.60;99.90;;;;;;5031507;28;20100;-60
2021/08/29 08:06:30;;;;;;;23.17;9.75;;;15.60;99.90;;;;;;5030393;28;20662;-59
2021/08/29 08:08:56;;;;;;;29.05;10.80;;;15.70;99.90;;;;;;5028296;28;20030;-60
2021/08/29 08:11:22;;;;;;;19.83;8.68;;;15.70;99.90;;;;;;5031086;28;20468;-61
2021/08/29 08:13:47;;;;;;;22.27;9.00;;;15.80;99.90;;;;;;5029247;28;20381;-59
2021/08/29 08:16:13;;;;;;;19.92;8.60;;;15.80;99.90;;;;;;5028688;28;20056;-59
2021/08/29 08:18:38;;;;;;;21.48;9.80;;;15.90;99.90;;;;;;5027372;28;20056;-60
2021/08/29 08:21:04;;;;;;;18.70;8.25;;;15.90;99.90;;;;;;5028937;28;20396;-61
2021/08/29 08:23:29;;;;;;;21.75;8.93;;;16.00;99.90;;;;;;5028511;28;20506;-61
2021/08/29 08:25:55;;;;;;;15.20;8.00;;;16.00;99.90;;;;;;5032872;28;20626;-61
2021/08/29 08:28:21;;;;;;;20.02;7.95;;;16.10;99.90;;;;;;5025587;28;20163;-60
2021/08/29 08:30:46;;;;;;;27.58;7.88;;;16.10;99.90;;;;;;5026973;28;20038;-59
2021/08/29 08:33:12;;;;;;;23.95;8.38;;;16.00;99.90;;;;;;5028960;28;20058;-61
2021/08/29 08:35:38;;;;;;;21.95;7.88;;;16.10;99.90;;;;;;5028165;28;20112;-60
2021/08/29 08:38:03;;;;;;;20.15;8.85;;;16.00;99.90;;;;;;5027097;28;20030;-59
2021/08/29 08:40:39;;;;;;;16.92;7.65;;;16.00;99.90;;;;;;5034170;28;20060;-61
2021/08/29 08:43:05;;;;;;;19.98;8.15;;;16.00;99.90;;;;;;5030955;28;20453;-60
2021/08/29 08:45:31;;;;;;;21.52;7.75;;;16.00;99.90;;;;;;5034066;28;20049;-61
2021/08/29 08:47:59;;;;;;;19.63;7.90;;;15.90;99.90;;;;;;5033236;28;20025;-61
2021/08/29 08:50:26;;;;;;;24.13;9.18;;;15.90;99.90;;;;;;5031314;28;20052;-61
2021/08/29 08:52:55;;;;;;;32.55;9.25;;;15.90;99.90;;;;;;5032066;28;20033;-58
2021/08/29 08:55:21;;;;;;;25.00;9.38;;;15.90;99.90;;;;;;5021965;28;20032;-60
2021/08/29 08:57:47;;;;;;;22.38;9.18;;;15.90;99.90;;;;;;5027080;28;20056;-61
2021/08/29 09:00:13;;;;;;;20.65;8.23;;;15.90;99.90;;;;;;5023402;28;20045;-60
2021/08/29 09:02:40;;;;;;;29.88;8.95;;;15.90;99.90;;;;;;5032695;28;20041;-59
2021/08/29 09:05:08;;;;;;;22.73;9.10;;;15.80;99.90;;;;;;5030842;28;20120;-58
2021/08/29 09:07:34;;;;;;;18.80;8.57;;;15.80;99.90;;;;;;5029079;28;20056;-59
2021/08/29 09:10:00;;;;;;;23.23;9.55;;;15.80;99.90;;;;;;5029157;28;20037;-59
2021/08/29 09:12:25;;;;;;;20.20;9.10;;;15.70;99.90;;;;;;5029930;28;20020;-60
2021/08/29 09:14:52;;;;;;;24.75;8.70;;;15.80;99.90;;;;;;5030947;28;20048;-59
2021/08/29 09:17:39;;;;;;;23.23;8.80;;;15.80;99.90;;;;;;5030349;28;20041;-62
2021/08/29 09:20:17;;;;;;;21.08;8.73;;;15.80;99.90;;;;;;5026252;28;20055;-59
2021/08/29 09:22:44;;;;;;;19.27;8.88;;;15.80;99.90;;;;;;5028941;28;20109;-59
2021/08/29 09:25:21;;;;;;;20.08;8.15;;;15.90;99.90;;;;;;5032946;28;20033;-56
2021/08/29 09:27:50;;;;;;;19.40;8.40;;;15.80;99.90;;;;;;5023772;28;20481;-59
2021/08/29 09:30:17;;;;;;;21.77;8.70;;;15.80;99.90;;;;;;5033886;28;20112;-59
2021/08/29 09:32:59;;;;;;;22.15;9.23;;;15.80;99.90;;;;;;5027058;28;20030;-60
2021/08/29 09:35:30;;;;;;;21.80;8.80;;;15.80;99.90;;;;;;5023423;28;20033;-62
2021/08/29 09:37:57;;;;;;;21.38;9.35;;;15.80;99.90;;;;;;5026626;28;20025;-59
2021/08/29 09:40:31;;;;;;;22.25;7.97;;;15.70;99.90;;;;;;5026714;28;20057;-56
2021/08/29 09:42:59;;;;;;;21.75;7.32;;;15.70;99.90;;;;;;5030777;28;20028;-61
2021/08/29 09:45:29;;;;;;;18.48;6.95;;;15.60;99.90;;;;;;5027279;28;20025;-58
2021/08/29 09:48:04;;;;;;;16.02;7.32;;;15.50;99.90;;;;;;5027779;28;20029;-59
2021/08/29 09:50:30;;;;;;;;;;;15.50;99.90;;;;;;5030361;28;20029;-61
2021/08/29 09:53:18;;;;;;;12.90;4.28;;;15.40;99.90;;;;;;5033516;28;19916;-59
2021/08/29 09:55:46;;;;;;;11.85;5.90;;;15.30;99.90;;;;;;5031828;28;20120;-60
2021/08/29 09:58:25;;;;;;;12.63;5.88;;;15.40;99.90;;;;;;5031613;28;20419;-58
2021/08/29 10:01:14;;;;;;;15.45;5.65;;;15.40;99.90;;;;;;5028966;28;20037;-58
2021/08/29 10:03:45;;;;;;;17.98;6.38;;;15.50;99.90;;;;;;5030025;28;20037;-59
2021/08/29 10:06:19;;;;;;;16.92;5.15;;;15.60;99.90;;;;;;5031250;28;20034;-60
2021/08/29 10:08:47;;;;;;;13.80;6.72;;;15.60;99.90;;;;;;5029270;28;20025;-60
2021/08/29 10:11:14;;;;;;;12.18;6.63;;;15.60;99.90;;;;;;5025756;28;20415;-60
2021/08/29 10:13:40;;;;;;;18.05;6.72;;;15.60;99.90;;;;;;5020136;28;20087;-60
2021/08/29 10:16:07;;;;;;;17.60;6.03;;;15.50;99.90;;;;;;5026697;28;20047;-59
2021/08/29 10:18:40;;;;;;;11.32;6.10;;;15.60;99.90;;;;;;5026806;28;20072;-59
2021/08/29 10:21:10;;;;;;;10.68;6.00;;;15.50;99.90;;;;;;5031734;28;20080;-61
2021/08/29 10:23:41;;;;;;;12.52;5.65;;;15.60;99.90;;;;;;5028430;28;20523;-59
2021/08/29 10:26:08;;;;;;;13.20;6.22;;;15.60;99.90;;;;;;5031171;28;20436;-59
2021/08/29 10:28:39;;;;;;;14.60;6.43;;;15.50;99.90;;;;;;5028368;28;20072;-58
2021/08/29 10:31:08;;;;;;;16.52;6.50;;;15.50;99.90;;;;;;5040306;28;20025;-58
2021/08/29 10:33:35;;;;;;;14.68;6.22;;;15.60;99.90;;;;;;5032364;28;20401;-60
2021/08/29 10:36:01;;;;;;;12.32;6.20;;;15.60;99.90;;;;;;5038451;28;20033;-60
2021/08/29 10:38:27;;;;;;;14.20;6.88;;;15.60;99.90;;;;;;5030466;28;20463;-61
2021/08/29 10:40:52;;;;;;;14.75;6.80;;;15.50;99.90;;;;;;5039706;28;20680;-61
2021/08/29 10:43:18;;;;;;;19.48;7.97;;;15.50;99.90;;;;;;5032003;28;20021;-58
2021/08/29 10:45:44;;;;;;;11.60;6.85;;;15.50;99.90;;;;;;5027309;28;20572;-61
2021/08/29 10:48:14;;;;;;;14.82;6.50;;;15.50;99.90;;;;;;5028316;28;20060;-58
2021/08/29 10:50:40;;;;;;;13.55;6.40;;;15.50;99.90;;;;;;5032547;28;20488;-61
2021/08/29 10:53:28;;;;;;;16.38;6.93;;;15.50;99.90;;;;;;5032502;28;20033;-60
2021/08/29 10:56:29;;;;;;;11.27;7.28;;;15.50;99.90;;;;;;5029991;28;20374;-60
2021/08/29 10:59:07;;;;;;;16.25;6.82;;;15.50;99.90;;;;;;5032128;28;20047;-60
2021/08/29 11:01:42;;;;;;;21.13;7.93;;;15.60;99.90;;;;;;5032939;28;20127;-58
2021/08/29 11:04:17;;;;;;;14.05;6.35;;;15.50;99.90;;;;;;5027097;28;20393;-62
2021/08/29 11:06:55;;;;;;;9.75;5.03;;;15.40;99.90;;;;;;5030493;28;20025;-58
2021/08/29 11:09:36;;;;;;;13.52;4.93;;;15.40;99.90;;;;;;5031496;28;20108;-61
2021/08/29 11:12:13;;;;;;;9.65;4.18;;;15.40;99.90;;;;;;5029308;28;20409;-57
2021/08/29 11:14:48;;;;;;;11.85;4.85;;;15.40;99.90;;;;;;5024304;28;20576;-59
2021/08/29 11:17:15;;;;;;;9.85;3.72;;;15.40;99.90;;;;;;5030144;28;20022;-60
2021/08/29 11:19:44;;;;;;;6.80;3.03;;;15.40;99.90;;;;;;5033936;28;20025;-59
2021/08/29 11:22:09;;;;;;;9.77;4.18;;;15.40;99.90;;;;;;5032698;28;20021;-61
2021/08/29 11:24:55;;;;;;;9.27;3.85;;;15.50;99.90;;;;;;5032206;28;20036;-60
2021/08/29 11:27:39;;;;;;;9.95;3.90;;;15.40;99.90;;;;;;5029124;28;20539;-58
2021/08/29 11:30:41;;;;;;;10.13;4.77;;;15.50;99.90;;;;;;5028786;28;20029;-57
2021/08/29 11:33:12;;;;;;;5.38;3.40;;;15.50;99.90;;;;;;5026729;28;20033;-59
2021/08/29 11:35:50;;;;;;;7.07;3.38;;;15.50;99.90;;;;;;5027819;28;20036;-58
2021/08/29 11:38:31;;;;;;;6.72;3.47;;;15.40;99.90;;;;;;5031159;28;20048;-59
2021/08/29 11:41:16;;;;;;;8.65;2.80;;;15.50;99.90;;;;;;5025604;28;20025;-61
2021/08/29 11:43:48;;;;;;;7.50;3.40;;;15.50;99.90;;;;;;5029735;28;20025;-60
2021/08/29 11:46:16;;;;;;;6.47;2.92;;;15.40;99.90;;;;;;5026623;28;20029;-60
2021/08/29 11:48:55;;;;;;;4.65;3.22;;;15.40;99.90;;;;;;5032332;28;20088;-59
2021/08/29 11:51:32;;;;;;;4.97;3.05;;;15.40;99.90;;;;;;5029980;28;20033;-60
2021/08/29 11:54:00;;;;;;;4.13;2.58;;;15.40;99.90;;;;;;5031041;28;20144;-60
2021/08/29 11:56:31;;;;;;;7.78;3.38;;;15.40;99.90;;;;;;5028783;28;20104;-60
2021/08/29 11:59:02;;;;;;;5.22;3.30;;;15.50;99.90;;;;;;5032742;28;20052;-60
2021/08/29 12:01:29;;;;;;;4.95;3.22;;;15.60;99.90;;;;;;5027917;28;20067;-62
2021/08/29 12:03:57;;;;;;;6.47;3.35;;;15.50;99.90;;;;;;5027144;28;20160;-60
2021/08/29 12:06:50;;;;;;;7.20;3.63;;;15.50;99.90;;;;;;5028556;28;20025;-59
2021/08/29 12:09:23;;;;;;;6.88;2.63;;;15.60;99.90;;;;;;5028610;28;20018;-61
2021/08/29 12:11:49;;;;;;;4.45;2.90;;;15.60;99.90;;;;;;5030191;28;20100;-57
2021/08/29 12:14:21;;;;;;;4.43;3.28;;;15.70;99.90;;;;;;5029464;28;20048;-59
2021/08/29 12:16:52;;;;;;;6.43;3.88;;;15.60;99.90;;;;;;5023367;28;20769;-58
2021/08/29 12:19:20;;;;;;;6.22;3.55;;;15.70;99.90;;;;;;5026628;28;20389;-58
2021/08/29 12:21:47;;;;;;;7.32;3.53;;;15.70;99.90;;;;;;5029796;28;20032;-56
2021/08/29 12:24:14;;;;;;;7.30;3.75;;;15.70;99.90;;;;;;5025965;28;20067;-59
2021/08/29 12:26:40;;;;;;;5.25;4.65;;;15.60;99.90;;;;;;5030018;28;20063;-60
2021/08/29 12:29:07;;;;;;;6.20;4.95;;;15.60;99.90;;;;;;5031274;28;20064;-60
2021/08/29 12:31:41;;;;;;;8.35;4.80;;;15.70;99.90;;;;;;5027470;28;20501;-60
2021/08/29 12:34:08;;;;;;;10.40;5.43;;;15.60;99.90;;;;;;5029972;28;20492;-61
2021/08/29 12:36:35;;;;;;;15.52;7.03;;;15.60;99.90;;;;;;5029120;28;20036;-59
2021/08/29 12:39:09;;;;;;;8.98;5.25;;;15.70;99.90;;;;;;5025164;28;20127;-57